Camp Point, Illinois
Current Conditions -  °F | °C
As of 9:54 PM on Friday 24 Oct 2014 (Local Time) from KUIN Reporting Station
Scattered Clouds Scattered Clouds  
Wind Chill: 62°   Ceiling: Unl
Heat Index: 62°   Visibility: 10mi
Dew Point: 57°   Wind: 8mph
Humidity: 84%   Direction: 210°SSW
Pressure: 29.97"   Gusts: NA
Location:  40.04°N, 91.07°W
Report Text: KUIN 250254Z AUTO 21007KT 10SM SCT043 17/14 A2997 RMK AO2 SLP145 T01670139 53008
Loading
Personal Weather Stations






























Interactive Weather Map
Tropical Storm Tracking
New forecast layout! Learn more

10-Day Weather Forecast

Advertisements
Track Severe Weather on mobile